Time;durP1;ratioP1;P1;durP2;ratioP2;P2;SDS_P1;SDS_P2;PMS_P1;PMS_P2;Temp;Humidity;BMP_temperature;BMP_pressure;BME280_temperature;BME280_humidity;BME280_pressure;Samples;Min_cycle;Max_cycle;Signal;HPM_P1;HPM_P2
2022/03/03 06:10:51;;;;;;;20.30;8.43;;;9.40;93.00;;;;;;5071979;28;20406;-74
2022/03/03 06:13:31;;;;;;;22.35;9.35;;;9.50;92.80;;;;;;5070818;28;20021;-75
2022/03/03 06:15:57;;;;;;;19.30;9.27;;;9.80;92.00;;;;;;5072369;28;20036;-72
2022/03/03 06:18:28;;;;;;;19.38;8.27;;;10.20;91.20;;;;;;5075142;28;20032;-73
2022/03/03 06:20:55;;;;;;;21.17;10.80;;;10.40;90.60;;;;;;5071925;28;20119;-72
2022/03/03 06:23:21;;;;;;;20.17;10.10;;;10.60;90.10;;;;;;5057179;28;20025;-72
2022/03/03 06:26:03;;;;;;;20.80;10.13;;;10.70;89.10;;;;;;5070891;28;20111;-73
2022/03/03 06:28:29;;;;;;;17.08;7.68;;;10.70;88.60;;;;;;5051640;28;20021;-74
2022/03/03 06:30:55;;;;;;;23.77;9.65;;;10.80;88.60;;;;;;5065349;28;20100;-73
2022/03/03 06:33:21;;;;;;;21.15;8.93;;;10.80;88.50;;;;;;5071055;28;20031;-73
2022/03/03 06:35:47;;;;;;;20.60;9.32;;;10.80;88.40;;;;;;5072076;28;20025;-76
2022/03/03 06:38:13;;;;;;;24.10;8.20;;;10.80;88.40;;;;;;5066491;28;20079;-74
2022/03/03 06:40:38;;;;;;;21.38;8.38;;;10.80;88.50;;;;;;5051854;28;20059;-74
2022/03/03 06:43:04;;;;;;;15.80;7.90;;;10.80;88.60;;;;;;5055989;28;20047;-74
2022/03/03 06:45:31;;;;;;;15.55;8.07;;;10.80;88.70;;;;;;5061514;28;20107;-74
2022/03/03 06:48:02;;;;;;;17.85;8.75;;;10.70;88.70;;;;;;5075495;28;20486;-74
2022/03/03 06:50:28;;;;;;;18.30;7.70;;;10.80;88.80;;;;;;5080093;28;20074;-73
2022/03/03 06:52:55;;;;;;;20.95;7.50;;;10.70;88.60;;;;;;5073480;28;20062;-73
2022/03/03 06:55:26;;;;;;;20.27;7.97;;;10.70;88.70;;;;;;5078302;28;20058;-74
2022/03/03 06:57:54;;;;;;;20.20;8.77;;;10.70;88.60;;;;;;5092881;28;20021;-74
2022/03/03 07:00:23;;;;;;;19.98;8.68;;;10.70;88.50;;;;;;5078066;28;20045;-74
2022/03/03 07:02:50;;;;;;;22.15;7.63;;;10.80;88.50;;;;;;5078810;28;20032;-74
2022/03/03 07:05:17;;;;;;;18.33;7.75;;;10.80;88.30;;;;;;5078032;28;20052;-75
2022/03/03 07:07:45;;;;;;;17.75;7.32;;;10.80;88.30;;;;;;5072512;28;20407;-74
2022/03/03 07:10:12;;;;;;;21.35;7.53;;;10.80;88.30;;;;;;5068001;28;20530;-75
2022/03/03 07:12:38;;;;;;;17.08;6.70;;;10.90;88.10;;;;;;5064573;28;20033;-75
2022/03/03 07:15:05;;;;;;;15.57;6.00;;;10.80;88.00;;;;;;5070040;28;20117;-75
2022/03/03 07:17:55;;;;;;;12.73;5.45;;;10.80;88.00;;;;;;5071079;28;20521;-74
2022/03/03 07:20:35;;;;;;;14.23;6.07;;;10.90;88.00;;;;;;5086702;28;20098;-74
2022/03/03 07:23:07;;;;;;;;;;;10.90;87.90;;;;;;5053232;28;20025;-74
2022/03/03 07:25:47;;;;;;;12.13;6.03;;;11.00;87.70;;;;;;5036980;28;19908;-74
2022/03/03 07:28:14;;;;;;;13.27;6.32;;;11.00;87.80;;;;;;5037397;28;20155;-75
2022/03/03 07:30:42;;;;;;;14.35;5.90;;;10.90;87.60;;;;;;5035569;28;20041;-74
2022/03/03 07:33:17;;;;;;;13.15;5.75;;;11.00;87.80;;;;;;5037282;28;20025;-74
2022/03/03 07:35:47;;;;;;;14.02;5.57;;;10.90;87.50;;;;;;5036348;28;20025;-74
2022/03/03 07:38:15;;;;;;;13.95;5.72;;;11.00;87.60;;;;;;5038301;28;20029;-74
2022/03/03 07:40:43;;;;;;;11.27;6.63;;;11.00;87.30;;;;;;5037301;28;20029;-74
2022/03/03 07:43:10;;;;;;;13.48;6.05;;;11.00;87.70;;;;;;5037566;28;20029;-74
2022/03/03 07:45:36;;;;;;;12.07;5.93;;;11.10;87.40;;;;;;5037625;28;20025;-74
2022/03/03 07:48:01;;;;;;;12.27;6.22;;;11.10;87.20;;;;;;5035985;28;20537;-74
2022/03/03 07:50:27;;;;;;;12.63;6.90;;;11.10;86.90;;;;;;5037131;28;20029;-74
2022/03/03 07:52:54;;;;;;;13.65;5.93;;;11.20;86.70;;;;;;5037488;28;20029;-74
2022/03/03 07:55:21;;;;;;;15.70;6.53;;;11.20;86.90;;;;;;5036029;28;20033;-74
2022/03/03 07:58:10;;;;;;;15.85;6.40;;;11.20;86.70;;;;;;5037215;28;20083;-74
2022/03/03 08:00:36;;;;;;;14.93;5.75;;;11.30;87.00;;;;;;5036916;28;20029;-74
2022/03/03 08:03:05;;;;;;;14.45;5.63;;;11.50;86.80;;;;;;5036834;28;20131;-74
2022/03/03 08:05:31;;;;;;;12.27;5.55;;;11.40;86.30;;;;;;5043040;28;20025;-75
2022/03/03 08:08:00;;;;;;;11.30;5.47;;;11.50;86.20;;;;;;5042130;28;20029;-75
2022/03/03 08:10:27;;;;;;;12.30;5.40;;;11.50;86.00;;;;;;5037147;28;20164;-74
2022/03/03 08:12:58;;;;;;;13.75;5.43;;;11.60;86.10;;;;;;5050960;28;20043;-74
2022/03/03 08:15:24;;;;;;;12.38;5.03;;;11.60;86.10;;;;;;5036716;28;20099;-74
2022/03/03 08:17:51;;;;;;;11.25;4.72;;;11.50;85.90;;;;;;5036757;28;20038;-74
2022/03/03 08:20:17;;;;;;;8.45;4.18;;;11.60;86.10;;;;;;5068060;28;20048;-75
2022/03/03 08:22:44;;;;;;;13.25;4.97;;;11.60;85.80;;;;;;5056709;28;20039;-74
2022/03/03 08:25:11;;;;;;;12.02;5.25;;;11.80;85.60;;;;;;5053610;28;20029;-74
2022/03/03 08:27:37;;;;;;;9.43;4.60;;;11.80;85.40;;;;;;5035400;28;20030;-74
2022/03/03 08:30:04;;;;;;;9.77;4.70;;;11.70;85.40;;;;;;5035119;28;20025;-74
2022/03/03 08:32:48;;;;;;;8.55;4.70;;;11.70;85.30;;;;;;5042047;28;20395;-74
2022/03/03 08:35:22;;;;;;;7.85;3.95;;;11.70;85.40;;;;;;5056411;28;20043;-74
2022/03/03 08:38:06;;;;;;;9.30;4.22;;;11.90;85.30;;;;;;5056145;28;20077;-74
2022/03/03 08:40:34;;;;;;;8.15;4.30;;;11.90;85.20;;;;;;5048272;28;20048;-74
2022/03/03 08:43:02;;;;;;;9.35;4.90;;;12.00;84.80;;;;;;5036521;28;20039;-74
2022/03/03 08:45:29;;;;;;;8.20;4.53;;;12.00;84.60;;;;;;5047903;28;20499;-74
2022/03/03 08:48:01;;;;;;;8.10;4.00;;;12.10;84.50;;;;;;5056494;28;20025;-75
2022/03/03 08:50:28;;;;;;;8.95;4.60;;;12.00;84.80;;;;;;5056050;28;20056;-74
2022/03/03 08:52:57;;;;;;;9.80;4.28;;;12.00;84.90;;;;;;5051052;28;20017;-74
2022/03/03 08:55:25;;;;;;;8.73;4.32;;;12.10;85.00;;;;;;5034748;28;20469;-74
2022/03/03 08:57:51;;;;;;;6.63;3.55;;;12.10;84.80;;;;;;5036169;28;20040;-75
2022/03/03 09:00:17;;;;;;;9.32;4.78;;;12.00;84.50;;;;;;5034601;28;20447;-74
2022/03/03 09:02:43;;;;;;;8.13;4.25;;;12.00;84.50;;;;;;5036050;28;20032;-75
2022/03/03 09:05:10;;;;;;;6.70;3.97;;;11.90;84.70;;;;;;5054695;28;20025;-74
2022/03/03 09:07:37;;;;;;;7.80;3.88;;;11.90;84.40;;;;;;5055908;28;20032;-74
2022/03/03 09:10:04;;;;;;;10.13;4.07;;;11.90;84.70;;;;;;5048188;28;20054;-74
2022/03/03 09:12:29;;;;;;;6.32;3.30;;;11.90;84.70;;;;;;5053287;28;20050;-74
2022/03/03 09:14:55;;;;;;;9.07;4.25;;;11.80;84.70;;;;;;5052711;28;20021;-75
2022/03/03 09:17:21;;;;;;;10.07;3.72;;;11.80;84.90;;;;;;5035893;28;20025;-74
2022/03/03 09:19:47;;;;;;;8.15;4.22;;;11.90;84.60;;;;;;5044464;28;20817;-74
2022/03/03 09:22:13;;;;;;;10.82;4.47;;;12.00;84.60;;;;;;5035657;28;20033;-74
2022/03/03 09:24:39;;;;;;;8.45;4.88;;;12.10;84.70;;;;;;5034297;28;20032;-75
2022/03/03 09:27:05;;;;;;;8.98;4.38;;;12.10;84.50;;;;;;5035657;28;20081;-75
2022/03/03 09:29:35;;;;;;;9.77;4.00;;;12.10;84.40;;;;;;5034091;28;20033;-75
2022/03/03 09:32:04;;;;;;;10.43;4.00;;;12.10;84.40;;;;;;5033868;28;20519;-74
2022/03/03 09:34:30;;;;;;;8.15;4.00;;;12.10;84.30;;;;;;5035376;28;20112;-74
2022/03/03 09:36:56;;;;;;;10.48;4.15;;;12.10;84.20;;;;;;5035306;28;20092;-74
2022/03/03 09:39:22;;;;;;;8.20;4.10;;;12.00;84.40;;;;;;5035405;28;20032;-74
2022/03/03 09:41:50;;;;;;;9.02;4.32;;;12.00;84.40;;;;;;5035297;28;20026;-75
2022/03/03 09:44:21;;;;;;;7.55;3.90;;;12.00;84.60;;;;;;5033835;28;20119;-75
2022/03/03 09:46:46;;;;;;;8.50;4.15;;;12.00;84.40;;;;;;5034273;28;20072;-74
2022/03/03 09:49:12;;;;;;;6.63;3.53;;;12.00;84.70;;;;;;5034890;28;20032;-74
2022/03/03 09:51:38;;;;;;;9.15;3.83;;;12.00;84.60;;;;;;5033894;28;20419;-74
2022/03/03 09:54:05;;;;;;;8.40;3.90;;;12.00;84.20;;;;;;5035440;28;20010;-75
2022/03/03 09:56:31;;;;;;;9.68;4.15;;;12.10;84.30;;;;;;5041417;28;20047;-74
2022/03/03 09:58:57;;;;;;;7.93;3.63;;;11.90;84.70;;;;;;5053673;28;20507;-74
2022/03/03 10:01:28;;;;;;;9.00;3.65;;;11.80;85.40;;;;;;5053762;28;20063;-75
2022/03/03 10:03:54;;;;;;;8.48;4.65;;;11.80;86.00;;;;;;5040957;28;20029;-75
2022/03/03 10:06:22;;;;;;;8.30;4.15;;;11.90;86.10;;;;;;5034957;28;20118;-74
2022/03/03 10:08:50;;;;;;;9.20;4.78;;;11.80;86.20;;;;;;5034634;28;20096;-74
2022/03/03 10:11:15;;;;;;;10.15;5.43;;;11.80;86.50;;;;;;5041062;28;20021;-74
2022/03/03 10:13:47;;;;;;;9.75;3.80;;;11.90;86.40;;;;;;5035299;28;20116;-74
2022/03/03 10:16:23;;;;;;;10.35;5.00;;;12.00;85.90;;;;;;5043116;28;20028;-75
2022/03/03 10:18:59;;;;;;;8.05;4.00;;;12.00;86.10;;;;;;5061715;28;20032;-74
2022/03/03 10:21:29;;;;;;;7.97;4.35;;;12.00;86.20;;;;;;5062123;28;20069;-74
2022/03/03 10:23:56;;;;;;;10.95;4.90;;;11.90;86.30;;;;;;5034854;28;20439;-74
2022/03/03 10:26:34;;;;;;;9.90;5.40;;;12.00;86.30;;;;;;5034345;28;20034;-75
2022/03/03 10:29:00;;;;;;;9.07;5.10;;;12.00;86.30;;;;;;5033456;28;20071;-74
2022/03/03 10:31:27;;;;;;;11.88;5.82;;;12.00;86.50;;;;;;5033440;28;20052;-74
2022/03/03 10:33:53;;;;;;;11.18;5.57;;;12.00;86.80;;;;;;5034685;28;20112;-74
2022/03/03 10:36:24;;;;;;;9.18;4.65;;;12.00;86.80;;;;;;5053349;28;20106;-75
2022/03/03 10:38:56;;;;;;;12.38;4.88;;;11.90;87.00;;;;;;5044096;28;20057;-74
2022/03/03 10:41:40;;;;;;;8.13;4.78;;;11.90;87.40;;;;;;5034352;28;20057;-74
2022/03/03 10:44:09;;;;;;;10.15;5.05;;;12.00;87.70;;;;;;5034803;28;20036;-75
2022/03/03 10:46:37;;;;;;;11.25;6.03;;;12.10;87.70;;;;;;5034729;28;20541;-74
2022/03/03 10:49:20;;;;;;;8.20;5.07;;;12.10;87.60;;;;;;5053121;28;20052;-74
2022/03/03 10:51:45;;;;;;;13.50;7.03;;;12.00;88.20;;;;;;5040732;28;20038;-74
2022/03/03 10:54:11;;;;;;;14.73;6.80;;;12.10;88.60;;;;;;5033428;28;20044;-75
2022/03/03 10:56:48;;;;;;;16.42;7.05;;;12.10;87.90;;;;;;5036538;28;20125;-74
2022/03/03 10:59:33;;;;;;;11.70;6.78;;;12.10;87.90;;;;;;5042483;28;20025;-74
2022/03/03 11:01:59;;;;;;;14.63;7.45;;;12.20;88.40;;;;;;5058350;28;20041;-75
2022/03/03 11:04:25;;;;;;;18.58;8.10;;;12.20;88.00;;;;;;5038416;28;20089;-74
2022/03/03 11:06:53;;;;;;;15.13;8.15;;;12.30;87.70;;;;;;5038344;28;20038;-74
2022/03/03 11:09:19;;;;;;;17.65;7.95;;;12.30;87.60;;;;;;5037914;28;20516;-75
2022/03/03 11:11:48;;;;;;;18.33;8.60;;;12.30;87.70;;;;;;5049628;28;20090;-74
2022/03/03 11:14:13;;;;;;;15.07;7.95;;;12.20;87.70;;;;;;5058251;28;20092;-75
2022/03/03 11:16:41;;;;;;;18.73;7.78;;;12.20;87.60;;;;;;5057923;28;20541;-74
2022/03/03 11:19:09;;;;;;;13.05;6.18;;;12.30;87.90;;;;;;5064957;28;20029;-75
2022/03/03 11:21:35;;;;;;;13.57;6.30;;;12.30;87.40;;;;;;5077812;28;20104;-74
2022/03/03 11:24:01;;;;;;;12.02;5.65;;;12.30;87.40;;;;;;5077834;28;20071;-75
2022/03/03 11:26:28;;;;;;;14.73;6.75;;;12.30;87.50;;;;;;5076539;28;20028;-74
2022/03/03 11:29:10;;;;;;;13.27;6.13;;;12.30;87.50;;;;;;5057548;28;20037;-75
2022/03/03 11:31:37;;;;;;;13.60;6.18;;;12.30;87.60;;;;;;5056632;28;20506;-74
2022/03/03 11:34:20;;;;;;;11.50;4.78;;;12.40;87.40;;;;;;5037589;28;20029;-74
2022/03/03 11:36:47;;;;;;;10.98;5.00;;;12.40;87.70;;;;;;5037495;28;20063;-75
2022/03/03 11:39:35;;;;;;;12.02;5.70;;;12.40;87.30;;;;;;5036422;28;20052;-75
2022/03/03 11:42:22;;;;;;;9.88;5.30;;;12.30;87.70;;;;;;5037215;28;20457;-75
2022/03/03 11:44:49;;;;;;;12.02;5.50;;;12.50;88.00;;;;;;5036365;28;20533;-74
2022/03/03 11:47:19;;;;;;;13.77;6.20;;;12.60;87.70;;;;;;5037449;28;20022;-75
2022/03/03 11:50:25;;;;;;;13.25;6.63;;;12.60;87.00;;;;;;5037419;28;20040;-75
2022/03/03 11:52:56;;;;;;;15.65;5.93;;;12.60;87.20;;;;;;5030996;28;20072;-74
2022/03/03 11:55:46;;;;;;;16.60;6.13;;;12.70;87.40;;;;;;5034245;28;20061;-74
2022/03/03 11:58:26;;;;;;;12.35;6.20;;;12.80;87.40;;;;;;5037165;28;20518;-75
2022/03/03 12:01:02;;;;;;;14.20;7.00;;;12.80;86.80;;;;;;5035953;28;20030;-74
2022/03/03 12:03:31;;;;;;;14.55;6.35;;;12.80;87.00;;;;;;5037016;28;20025;-75
2022/03/03 12:06:14;;;;;;;19.83;6.30;;;12.80;86.80;;;;;;5051603;28;20029;-75
2022/03/03 12:08:41;;;;;;;14.88;6.80;;;12.90;87.10;;;;;;5056609;28;20025;-74
2022/03/03 12:11:17;;;;;;;16.05;7.10;;;13.00;87.00;;;;;;5044896;28;20382;-74
2022/03/03 12:13:51;;;;;;;17.02;7.18;;;13.00;87.00;;;;;;5055493;28;20025;-75
2022/03/03 12:16:28;;;;;;;14.57;5.38;;;13.00;86.80;;;;;;5055704;28;20542;-75
2022/03/03 12:18:58;;;;;;;10.93;5.03;;;13.00;86.50;;;;;;5064326;28;20028;-74
2022/03/03 12:21:33;;;;;;;12.55;6.93;;;12.80;86.30;;;;;;5037737;28;20025;-75
2022/03/03 12:24:20;;;;;;;13.32;6.65;;;12.90;87.00;;;;;;5036632;28;20446;-75
2022/03/03 12:26:59;;;;;;;13.85;6.35;;;13.00;87.00;;;;;;5036292;28;20022;-75
2022/03/03 12:29:42;;;;;;;15.65;6.45;;;13.10;86.40;;;;;;5035257;28;20056;-75
2022/03/03 12:32:42;;;;;;;14.45;6.40;;;13.20;86.30;;;;;;5050590;28;20036;-75
2022/03/03 12:35:20;;;;;;;13.48;6.55;;;13.20;86.10;;;;;;5056399;28;20047;-75
2022/03/03 12:37:46;;;;;;;13.82;6.20;;;13.20;86.70;;;;;;5056306;28;20043;-75
2022/03/03 12:40:14;;;;;;;11.48;5.50;;;13.10;86.30;;;;;;5038560;28;20061;-74
2022/03/03 12:42:43;;;;;;;14.70;5.35;;;13.20;86.50;;;;;;5036227;28;20025;-75
2022/03/03 12:45:14;;;;;;;11.35;5.05;;;13.20;86.40;;;;;;5036194;28;20517;-75
2022/03/03 12:47:48;;;;;;;12.52;5.68;;;13.20;86.60;;;;;;5034811;28;20103;-75
2022/03/03 12:50:22;;;;;;;14.10;5.85;;;13.20;86.40;;;;;;5036259;28;20029;-75
2022/03/03 12:53:00;;;;;;;16.23;6.18;;;13.10;86.90;;;;;;5036123;28;20055;-75
2022/03/03 12:55:28;;;;;;;11.20;5.38;;;13.20;86.80;;;;;;5034750;28;20484;-75
2022/03/03 12:57:55;;;;;;;15.77;6.78;;;13.30;86.40;;;;;;5036243;28;20033;-75
2022/03/03 13:00:21;;;;;;;4.63;1.85;;;13.20;86.00;;;;;;5036060;28;20025;-75
2022/03/03 13:02:59;;;;;;;1.45;0.90;;;12.80;85.50;;;;;;5035987;28;20033;-75
2022/03/03 13:05:35;;;;;;;2.60;0.80;;;12.20;86.70;;;;;;5035717;28;20096;-75
2022/03/03 13:08:02;;;;;;;2.90;0.80;;;12.00;89.10;;;;;;5035811;28;20075;-75
2022/03/03 13:10:29;;;;;;;2.25;0.73;;;11.80;89.40;;;;;;5036413;28;20038;-75
2022/03/03 13:12:56;;;;;;;1.60;0.70;;;11.70;88.80;;;;;;5054311;28;20104;-74
2022/03/03 13:15:36;;;;;;;3.38;1.00;;;11.50;88.40;;;;;;5050317;28;20028;-75
2022/03/03 13:18:08;;;;;;;4.07;0.70;;;11.70;88.50;;;;;;5036232;28;20029;-75
2022/03/03 13:20:43;;;;;;;2.17;0.70;;;11.70;87.30;;;;;;5075503;28;20066;-75
2022/03/03 13:23:14;;;;;;;2.03;1.05;;;11.80;86.30;;;;;;5074122;28;20024;-76
2022/03/03 13:25:41;;;;;;;1.65;0.90;;;11.80;86.10;;;;;;5038278;28;20036;-76
2022/03/03 13:28:23;;;;;;;3.33;0.90;;;11.80;86.00;;;;;;5035479;28;20035;-76
2022/03/03 13:30:50;;;;;;;4.88;0.98;;;11.90;86.00;;;;;;5035543;28;20036;-76
2022/03/03 13:33:16;;;;;;;1.67;0.90;;;11.80;85.30;;;;;;5035375;28;20025;-76
2022/03/03 13:35:42;;;;;;;3.80;0.90;;;11.90;85.70;;;;;;5035667;28;20041;-76
2022/03/03 13:38:08;;;;;;;3.90;1.40;;;11.80;84.50;;;;;;5035505;28;20024;-75
2022/03/03 13:40:36;;;;;;;1.50;0.85;;;11.60;84.70;;;;;;5035136;28;20087;-76
2022/03/03 13:43:02;;;;;;;3.78;1.20;;;11.50;85.60;;;;;;5033898;28;20084;-75
2022/03/03 13:45:33;;;;;;;3.47;1.00;;;11.40;86.00;;;;;;5034121;28;20029;-75
2022/03/03 13:48:03;;;;;;;5.65;1.17;;;11.30;85.40;;;;;;5033936;28;20033;-75
2022/03/03 13:50:29;;;;;;;6.50;1.33;;;11.40;85.80;;;;;;5037758;28;20108;-76
2022/03/03 13:53:10;;;;;;;7.28;1.30;;;11.40;86.30;;;;;;5043976;28;20029;-76
2022/03/03 13:55:36;;;;;;;9.68;1.80;;;11.50;86.30;;;;;;5033780;28;20021;-76
2022/03/03 13:58:05;;;;;;;5.70;2.58;;;11.40;85.60;;;;;;5034905;28;20030;-75
2022/03/03 14:00:36;;;;;;;6.82;3.30;;;11.30;86.50;;;;;;5033768;28;20049;-75
2022/03/03 14:03:12;;;;;;;8.15;3.25;;;11.40;86.30;;;;;;5035294;28;20029;-75
2022/03/03 14:05:42;;;;;;;4.75;1.35;;;11.40;85.60;;;;;;5035191;28;20075;-76
2022/03/03 14:08:31;;;;;;;6.97;1.42;;;11.50;87.10;;;;;;5050314;28;20090;-76
2022/03/03 14:10:59;;;;;;;6.60;1.85;;;11.60;85.60;;;;;;5054923;28;20052;-76
2022/03/03 14:13:30;;;;;;;5.93;1.25;;;11.70;86.20;;;;;;5054800;28;20028;-75
2022/03/03 14:15:58;;;;;;;3.65;0.85;;;11.80;85.10;;;;;;5052803;28;20071;-76
2022/03/03 14:18:24;;;;;;;7.07;1.95;;;11.80;85.40;;;;;;5057030;28;20116;-75
2022/03/03 14:20:55;;;;;;;5.97;1.50;;;11.80;84.90;;;;;;5074985;28;20036;-76
2022/03/03 14:23:22;;;;;;;6.05;2.40;;;11.80;84.30;;;;;;5073497;28;20052;-76
2022/03/03 14:25:49;;;;;;;5.30;1.77;;;11.80;85.00;;;;;;5053602;28;20380;-76
2022/03/03 14:28:16;;;;;;;5.70;1.40;;;11.80;85.90;;;;;;5054786;28;20522;-76
2022/03/03 14:30:42;;;;;;;3.45;1.10;;;11.90;84.70;;;;;;5042074;28;20692;-75
2022/03/03 14:33:08;;;;;;;2.45;1.20;;;11.90;85.20;;;;;;5038343;28;20025;-76
2022/03/03 14:35:34;;;;;;;6.07;1.88;;;11.80;84.70;;;;;;5038875;28;20102;-75
2022/03/03 14:38:00;;;;;;;8.70;1.50;;;11.80;85.60;;;;;;5037556;28;20025;-76
2022/03/03 14:40:26;;;;;;;3.25;1.42;;;11.70;83.40;;;;;;5038466;28;20112;-76
2022/03/03 14:42:51;;;;;;;8.10;1.88;;;11.60;83.90;;;;;;5038675;28;20419;-75
2022/03/03 14:45:17;;;;;;;11.52;1.80;;;11.70;84.00;;;;;;5038762;28;20491;-75
2022/03/03 14:47:43;;;;;;;9.18;1.95;;;11.70;84.00;;;;;;5037295;28;20026;-76
2022/03/03 14:50:10;;;;;;;6.90;1.33;;;11.50;84.00;;;;;;5038116;28;20040;-76
2022/03/03 14:52:36;;;;;;;12.27;2.80;;;11.30;84.20;;;;;;5037324;28;20029;-76
2022/03/03 14:55:04;;;;;;;14.63;4.18;;;11.20;84.90;;;;;;5038296;28;20026;-76
2022/03/03 14:57:29;;;;;;;9.38;2.75;;;11.30;84.40;;;;;;5037027;28;20108;-76
2022/03/03 14:59:55;;;;;;;7.78;1.92;;;11.30;84.60;;;;;;5038301;28;20057;-75
2022/03/03 15:02:21;;;;;;;8.63;2.55;;;11.20;84.50;;;;;;5038441;28;20022;-76
2022/03/03 15:04:47;;;;;;;9.65;2.22;;;11.20;85.60;;;;;;5038096;28;20076;-75
2022/03/03 15:07:12;;;;;;;13.57;4.60;;;11.30;84.40;;;;;;5037956;28;20101;-75
2022/03/03 15:09:38;;;;;;;12.35;2.75;;;11.30;84.50;;;;;;5038021;28;20049;-75
2022/03/03 15:12:04;;;;;;;11.35;1.92;;;11.50;85.20;;;;;;5050764;28;20027;-76
2022/03/03 15:14:30;;;;;;;25.45;11.63;;;11.50;83.90;;;;;;5057982;28;20483;-76
2022/03/03 15:16:56;;;;;;;30.88;16.63;;;11.30;85.10;;;;;;5058196;28;20812;-75
2022/03/03 15:19:21;;;;;;;15.98;6.80;;;11.40;85.20;;;;;;5065437;28;20039;-75
2022/03/03 15:21:47;;;;;;;11.00;3.10;;;11.40;85.30;;;;;;5076592;28;20032;-76
2022/03/03 15:24:13;;;;;;;22.77;8.77;;;11.30;85.20;;;;;;5077683;28;20032;-75
2022/03/03 15:26:41;;;;;;;17.95;6.38;;;11.50;85.60;;;;;;5066411;28;20040;-75
2022/03/03 15:29:11;;;;;;;17.15;6.90;;;11.60;85.90;;;;;;5057668;28;20033;-75
2022/03/03 15:31:38;;;;;;;22.08;7.35;;;11.60;85.50;;;;;;5043737;28;20018;-75
2022/03/03 15:36:48;;;;;;;13.05;5.70;;;11.70;85.80;;;;;;5050661;28;20063;-76
2022/03/03 15:39:17;;;;;;;10.55;2.72;;;11.50;85.70;;;;;;5052679;28;20111;-76
2022/03/03 15:41:45;;;;;;;19.45;4.80;;;11.60;84.70;;;;;;5055272;28;20041;-76
2022/03/03 15:44:12;;;;;;;12.35;2.70;;;11.70;85.80;;;;;;5054440;28;20021;-74
2022/03/03 15:46:38;;;;;;;9.57;2.22;;;11.80;84.90;;;;;;5054526;28;20054;-76
2022/03/03 15:49:03;;;;;;;16.95;3.97;;;11.80;83.60;;;;;;5054767;28;20129;-75
2022/03/03 15:51:29;;;;;;;17.00;7.32;;;11.70;84.00;;;;;;5054983;28;20463;-75
2022/03/03 15:53:55;;;;;;;17.20;7.40;;;11.70;85.40;;;;;;5041813;28;20021;-74
2022/03/03 15:56:21;;;;;;;31.85;10.02;;;11.70;85.30;;;;;;5047168;28;20021;-76
2022/03/03 15:58:47;;;;;;;18.88;6.00;;;11.70;85.00;;;;;;5041992;28;20473;-75
2022/03/03 16:01:13;;;;;;;15.80;5.63;;;11.70;86.10;;;;;;5047827;28;20026;-75
2022/03/03 16:03:39;;;;;;;17.27;3.63;;;11.70;85.30;;;;;;5054338;28;20564;-75
2022/03/03 16:06:06;;;;;;;14.27;5.80;;;11.60;85.10;;;;;;5042274;28;20654;-75
2022/03/03 16:08:31;;;;;;;21.98;7.30;;;11.70;85.80;;;;;;5040490;28;20055;-73
2022/03/03 16:10:57;;;;;;;14.60;4.13;;;11.70;85.20;;;;;;5053416;28;20025;-75
2022/03/03 16:13:23;;;;;;;13.73;4.13;;;11.50;84.50;;;;;;5046343;28;20084;-75
2022/03/03 16:15:49;;;;;;;17.38;3.92;;;11.50;85.80;;;;;;5054372;28;20048;-75
2022/03/03 16:18:15;;;;;;;16.30;5.63;;;11.60;85.80;;;;;;5053931;28;20028;-75
2022/03/03 16:20:43;;;;;;;20.52;4.43;;;11.60;85.80;;;;;;5054234;28;20025;-75
2022/03/03 16:23:09;;;;;;;17.25;6.28;;;11.60;85.80;;;;;;5054159;28;20036;-75
2022/03/03 16:25:34;;;;;;;22.92;9.63;;;11.70;85.60;;;;;;5053875;28;20029;-75
2022/03/03 16:28:00;;;;;;;14.68;4.30;;;11.60;85.60;;;;;;5056602;28;20402;-75
2022/03/03 16:30:26;;;;;;;12.38;2.00;;;11.70;85.00;;;;;;5056075;28;20101;-75
2022/03/03 16:32:52;;;;;;;18.42;2.28;;;11.50;85.10;;;;;;5038356;28;20109;-75
2022/03/03 16:35:18;;;;;;;16.58;2.95;;;11.30;85.40;;;;;;5034665;28;20072;-75
2022/03/03 16:37:43;;;;;;;15.23;2.72;;;11.20;85.60;;;;;;5041953;28;20029;-76
2022/03/03 16:40:09;;;;;;;9.25;2.45;;;11.20;85.40;;;;;;5055909;28;20021;-75
2022/03/03 16:42:36;;;;;;;12.55;2.10;;;11.20;85.60;;;;;;5055146;28;20033;-75
2022/03/03 16:45:01;;;;;;;13.38;2.40;;;11.20;84.50;;;;;;5056106;28;20021;-75
2022/03/03 16:47:27;;;;;;;13.57;2.35;;;11.10;85.40;;;;;;5037880;28;20033;-75
2022/03/03 16:49:53;;;;;;;10.85;3.20;;;11.00;85.70;;;;;;5051272;28;20033;-75
2022/03/03 16:52:19;;;;;;;19.27;3.22;;;11.10;86.30;;;;;;5036069;28;20026;-75
2022/03/03 16:54:47;;;;;;;12.27;3.00;;;11.10;85.90;;;;;;5048900;28;20429;-75
2022/03/03 16:57:13;;;;;;;15.23;2.80;;;11.10;86.50;;;;;;5055900;28;20025;-76
2022/03/03 16:59:39;;;;;;;23.42;3.00;;;11.10;86.20;;;;;;5050986;28;20033;-75
2022/03/03 17:02:05;;;;;;;19.83;3.97;;;11.20;85.60;;;;;;5036598;28;20034;-75
2022/03/03 17:04:31;;;;;;;13.10;2.97;;;11.20;86.60;;;;;;5047593;28;20025;-75
2022/03/03 17:06:56;;;;;;;21.05;3.17;;;11.40;86.60;;;;;;5049005;28;20033;-75
2022/03/03 17:09:22;;;;;;;19.10;3.40;;;11.50;86.40;;;;;;5035873;28;20063;-75
2022/03/03 17:11:48;;;;;;;25.60;4.07;;;11.60;85.50;;;;;;5046072;28;20108;-75
2022/03/03 17:14:14;;;;;;;19.27;3.95;;;11.50;85.40;;;;;;5055663;28;20526;-75
2022/03/03 17:16:40;;;;;;;17.75;3.72;;;11.30;85.10;;;;;;5054461;28;20092;-75
2022/03/03 17:19:05;;;;;;;18.85;3.55;;;11.20;85.60;;;;;;5054113;28;20403;-75
2022/03/03 17:21:32;;;;;;;23.95;3.30;;;11.20;86.60;;;;;;5075344;28;20072;-74
2022/03/03 17:24:01;;;;;;;26.50;4.18;;;11.20;85.60;;;;;;5075410;28;20036;-74
2022/03/03 17:26:28;;;;;;;16.38;3.95;;;11.30;86.50;;;;;;5046000;28;20037;-75
2022/03/03 17:28:54;;;;;;;19.42;4.10;;;11.30;86.60;;;;;;5035442;28;20480;-74
2022/03/03 17:31:21;;;;;;;15.70;3.63;;;11.40;86.60;;;;;;5035082;28;20080;-74
2022/03/03 17:33:48;;;;;;;19.63;4.10;;;11.50;86.40;;;;;;5055807;28;20114;-74
2022/03/03 17:36:14;;;;;;;21.08;4.35;;;11.40;86.50;;;;;;5046595;28;20025;-75
2022/03/03 17:38:41;;;;;;;22.02;4.15;;;11.50;86.30;;;;;;5050901;28;20487;-74
2022/03/03 17:41:07;;;;;;;18.00;4.25;;;11.50;86.30;;;;;;5036325;28;20468;-73
2022/03/03 17:43:34;;;;;;;16.35;3.42;;;11.50;86.30;;;;;;5032230;28;20441;-74
2022/03/03 17:46:00;;;;;;;21.38;4.47;;;11.60;86.50;;;;;;5027784;28;20037;-74
2022/03/03 17:48:26;;;;;;;21.50;3.92;;;11.70;86.70;;;;;;5013930;28;20415;-73
2022/03/03 17:50:52;;;;;;;21.70;5.38;;;11.70;86.30;;;;;;5011946;28;20045;-73
2022/03/03 17:53:19;;;;;;;23.50;4.20;;;11.60;86.00;;;;;;5023411;28;20087;-73
2022/03/03 17:55:45;;;;;;;17.23;4.00;;;11.60;86.10;;;;;;5033502;28;20033;-74
2022/03/03 17:58:10;;;;;;;24.75;5.05;;;11.60;86.40;;;;;;5033918;28;20091;-74
2022/03/03 18:00:36;;;;;;;17.98;4.38;;;11.70;86.80;;;;;;5022232;28;20029;-74
2022/03/03 18:03:03;;;;;;;21.40;4.40;;;11.60;86.30;;;;;;5031240;28;20083;-74
2022/03/03 18:05:29;;;;;;;18.52;4.18;;;11.40;85.50;;;;;;5030064;28;20122;-74
2022/03/03 18:07:56;;;;;;;23.60;3.83;;;11.40;85.80;;;;;;5046490;28;20057;-73
2022/03/03 18:10:22;;;;;;;19.73;3.72;;;11.30;85.90;;;;;;5029797;28;20053;-74
2022/03/03 18:12:48;;;;;;;19.08;2.80;;;11.20;86.50;;;;;;5035345;28;20083;-76
2022/03/03 18:15:14;;;;;;;20.27;3.38;;;11.00;84.80;;;;;;5039686;28;20052;-73
2022/03/03 18:17:39;;;;;;;17.23;2.90;;;11.10;85.30;;;;;;5044786;28;20032;-74
2022/03/03 18:20:06;;;;;;;27.73;4.15;;;11.20;86.00;;;;;;5026148;28;20042;-74
2022/03/03 18:22:32;;;;;;;22.40;3.47;;;11.00;85.40;;;;;;5033549;28;20163;-75
2022/03/03 18:24:58;;;;;;;20.63;3.35;;;11.00;85.80;;;;;;5052431;28;20491;-74
2022/03/03 18:27:24;;;;;;;22.65;4.03;;;11.10;86.10;;;;;;5036341;28;20056;-74
2022/03/03 18:29:49;;;;;;;25.92;4.63;;;11.10;86.00;;;;;;5053032;28;20035;-74
2022/03/03 18:32:15;;;;;;;11.88;4.03;;;11.10;85.60;;;;;;5048893;28;20483;-75
2022/03/03 18:34:43;;;;;;;21.35;4.80;;;11.10;86.00;;;;;;5049277;28;20057;-75
2022/03/03 18:37:10;;;;;;;33.08;5.68;;;11.20;86.40;;;;;;5047464;28;20059;-74
2022/03/03 18:39:36;;;;;;;14.63;3.75;;;11.10;85.00;;;;;;5038692;28;20029;-77
2022/03/03 18:42:02;;;;;;;18.52;4.55;;;10.90;84.60;;;;;;5021850;28;20034;-79
2022/03/03 18:44:28;;;;;;;15.63;3.85;;;10.90;85.40;;;;;;5032655;28;20447;-77
2022/03/03 18:46:54;;;;;;;17.10;4.25;;;11.00;85.30;;;;;;5029708;28;20038;-75
2022/03/03 18:49:20;;;;;;;11.20;2.90;;;11.00;85.10;;;;;;5031535;28;20509;-74
2022/03/03 18:51:47;;;;;;;19.52;3.03;;;10.90;84.40;;;;;;5032540;28;20029;-75
2022/03/03 18:54:13;;;;;;;12.60;3.30;;;10.80;83.90;;;;;;5028981;28;20124;-75
2022/03/03 18:56:38;;;;;;;16.50;2.55;;;10.80;84.50;;;;;;5020350;28;20065;-75
2022/03/03 18:59:04;;;;;;;16.48;2.70;;;10.90;84.40;;;;;;5024424;28;20028;-75
2022/03/03 19:01:32;;;;;;;19.08;3.78;;;10.80;83.50;;;;;;5032703;28;20096;-76